Aérodrome :
LOGIN :

S'inscrire | Disclaimer

   EN    FR    IT 

 










Légende :    VFR   VFR Marginal   IFR   IFR Intensif   IFR Très Intensif
Visi : 
Plafond : 
>= 8 km
>= 3000ft
5 à 8 km
1000 à 3000 ft
1500m à 5 km
500 à 1000 ft
800 à 1500m
200 à 500 ft
< 800m
< 200 ft
Symboles :   Orages  Brouillard  Fortes neiges  Fortes précipitations  Vent > 20 kt
SIGMETs :   Divers  Orages  Givrage  Turbulence  Onde Orograph.  Cendres Volcan.







- Altitude de l'aérodrome : 38 ft
- Code IATA : BOH
- Voir les cartes d'approche


EGHH - Bournemouth

DERNIER METAR :
  • 121320Z 20004KT 9999 FEW030 07/02 Q1010

METARs EXPIRÉS :
  • 121250Z 19003KT CAVOK 07/02 Q1010
  • 121220Z 16003KT CAVOK 05/01 Q1009
  • 121150Z 12001KT CAVOK 04/02 Q1010
  • 121120Z 00000KT CAVOK 03/02 Q1010
  • 121050Z 01001KT CAVOK 01/00 Q1010

TAF TAF EGHH
Valide du 12 à 12h jusqu'au 12 à 21h UTC


121106Z 1212/1221 19004KT 9999 FEW045
PROB30
TEMPO 1214/1220 23015G25KT 7000 RA BKN014
ATIS : +44 1202 364 151
Météo : +44 1202 364 158 (TAF)
Pas de NOTAMs connus pour ce terrain.
1 SIGMET publié pour la FIR London (EGTT) :
 
Turbulence forte
EGTT SIGMET 02 VALID 121100/121500 EGRR
EGTT LONDON FIR SEV TURB FCST WI N5100 W00754 - N5207 W00548 - N4929 W00441 - N4926 W00456 - N4856 W00729 - N5100 W00754 FL200/420 MOV E 05KT NC=



MET'MAP, la Météo Aéronautique d'un coup d'oeil ! - Copyright ORBIFLY Décembre 2007 - Disclaimer

ORBIFLY MET'MAP TEAM :

Programmation & Développement : Alexandra Zaïnal
Conception & Développement : Baudouin d'Aumeries
Co-Programmation & Développement : Marc-Olivier Méhu
Soutien technique & logistique : Manuel Goepfert

Contact : metmap@orbifly.com




SOURCES & CREDITS :

   NOAA